Time;durP1;ratioP1;P1;durP2;ratioP2;P2;SDS_P1;SDS_P2;PMS_P1;PMS_P2;Temp;Humidity;BMP_temperature;BMP_pressure;BME280_temperature;BME280_humidity;BME280_pressure;Samples;Min_cycle;Max_cycle;Signal;HPM_P1;HPM_P2
2022/08/04 00:02:26;;;;;;;14.38;12.90;;;;;;;20.94;50.12;100457.91;5001942;28;20038;-74
2022/08/04 00:04:54;;;;;;;15.02;13.98;;;;;;;20.96;49.51;100461.38;4998466;28;20503;-74
2022/08/04 00:07:40;;;;;;;14.70;13.70;;;;;;;20.97;50.79;100455.94;5003434;28;20036;-74
2022/08/04 00:10:07;;;;;;;13.38;12.57;;;;;;;20.96;49.62;100458.72;5001400;28;20128;-74
2022/08/04 00:12:36;;;;;;;13.02;12.07;;;;;;;20.97;50.17;100461.28;5004259;28;20514;-74
2022/08/04 00:15:05;;;;;;;14.20;13.05;;;;;;;20.89;50.13;100463.50;5001569;28;20034;-74
2022/08/04 00:17:44;;;;;;;13.80;12.93;;;;;;;20.86;50.77;100460.97;5004198;28;20068;-74
2022/08/04 00:20:15;;;;;;;13.85;12.85;;;;;;;20.81;50.34;100462.16;5001146;28;20035;-74
2022/08/04 00:22:43;;;;;;;14.27;13.02;;;;;;;20.79;49.32;100467.56;4998656;28;20038;-75
2022/08/04 00:25:09;;;;;;;15.32;14.32;;;;;;;20.79;48.87;100468.44;5002950;28;20042;-74
2022/08/04 00:27:34;;;;;;;14.60;13.68;;;;;;;20.79;48.12;100468.44;5003577;28;20160;-74
2022/08/04 00:30:00;;;;;;;13.63;12.63;;;;;;;20.81;49.15;100471.06;5001791;28;20070;-74
2022/08/04 00:32:26;;;;;;;14.52;13.52;;;;;;;20.84;49.14;100467.34;5003004;28;20084;-74
2022/08/04 00:34:53;;;;;;;14.57;13.57;;;;;;;20.71;49.82;100464.41;5000251;28;20084;-74
2022/08/04 00:37:21;;;;;;;12.98;12.07;;;;;;;20.67;50.06;100470.84;5002282;28;20480;-74
2022/08/04 00:39:47;;;;;;;14.27;13.48;;;;;;;20.65;49.89;100468.25;5002375;28;20041;-74
2022/08/04 00:42:36;;;;;;;14.00;12.90;;;;;;;20.65;51.18;100467.41;5002368;28;20073;-74
2022/08/04 00:45:20;;;;;;;12.93;12.10;;;;;;;20.55;51.75;100467.84;4997597;28;20040;-74
2022/08/04 00:48:22;;;;;;;12.80;12.00;;;;;;;20.38;52.61;100469.56;4995931;28;20381;-75
2022/08/04 00:50:59;;;;;;;12.85;12.05;;;;;;;20.28;52.73;100474.50;5004134;28;20447;-74
2022/08/04 00:53:37;;;;;;;14.90;12.80;;;;;;;20.25;51.80;100469.25;5001035;28;20485;-74
2022/08/04 00:56:29;;;;;;;12.85;11.88;;;;;;;20.30;52.50;100472.59;4997831;28;20227;-74
2022/08/04 00:59:13;;;;;;;11.85;11.05;;;;;;;20.31;51.86;100471.69;4998821;28;20037;-74
2022/08/04 01:01:41;;;;;;;12.85;12.05;;;;;;;20.32;51.54;100470.72;4994845;28;20053;-74
2022/08/04 01:04:30;;;;;;;12.05;11.35;;;;;;;20.33;51.77;100469.75;5003075;28;20034;-74
2022/08/04 01:07:13;;;;;;;13.30;12.48;;;;;;;20.29;51.16;100470.88;4998184;28;20460;-74
2022/08/04 01:10:01;;;;;;;12.93;12.02;;;;;;;20.24;52.07;100478.25;4997083;28;20077;-74
2022/08/04 01:12:42;;;;;;;13.70;12.80;;;;;;;20.17;51.89;100474.13;5000339;28;20404;-74
2022/08/04 01:15:40;;;;;;;13.30;12.50;;;;;;;20.16;51.81;100472.38;5001342;28;20046;-74
2022/08/04 01:18:07;;;;;;;13.85;12.95;;;;;;;20.09;51.28;100469.13;5004411;28;20293;-74
2022/08/04 01:21:28;;;;;;;12.95;12.15;;;;;;;20.09;52.41;100471.78;5004665;28;20041;-74
2022/08/04 01:24:31;;;;;;;13.48;12.57;;;;;;;20.02;52.02;100468.56;4944290;28;20084;-74
2022/08/04 01:27:08;;;;;;;13.18;12.35;;;;;;;20.03;51.44;100475.63;5003286;28;20485;-74
2022/08/04 01:29:39;;;;;;;12.88;11.98;;;;;;;20.00;51.92;100473.09;4999269;28;20046;-75
2022/08/04 01:32:17;;;;;;;13.17;12.37;;;;;;;19.93;52.58;100471.63;5000742;28;20038;-74
2022/08/04 01:34:51;;;;;;;12.10;11.30;;;;;;;19.88;52.72;100476.34;4999117;28;20035;-74
2022/08/04 01:37:37;;;;;;;12.35;11.55;;;;;;;19.84;52.40;100480.97;5000730;28;20042;-74
2022/08/04 01:40:05;;;;;;;12.10;11.40;;;;;;;19.85;52.32;100485.38;5001282;28;20033;-74
2022/08/04 01:42:32;;;;;;;11.57;10.88;;;;;;;19.86;52.37;100480.91;4999837;28;20389;-75
2022/08/04 01:45:01;;;;;;;12.05;11.30;;;;;;;19.80;52.85;100475.81;5001945;28;20033;-74
2022/08/04 01:47:29;;;;;;;11.80;11.00;;;;;;;19.78;52.87;100475.00;5001629;28;20117;-74
2022/08/04 01:50:03;;;;;;;11.63;10.82;;;;;;;19.79;52.45;100477.63;5001240;28;20440;-74
2022/08/04 01:52:30;;;;;;;12.27;11.57;;;;;;;19.77;52.41;100471.47;4996483;28;20045;-74
2022/08/04 01:54:56;;;;;;;12.75;11.95;;;;;;;19.79;52.60;100474.09;4998229;28;20113;-74
2022/08/04 01:57:22;;;;;;;11.55;10.85;;;;;;;19.76;52.55;100472.41;4979761;28;20489;-74
2022/08/04 01:59:51;;;;;;;11.48;10.77;;;;;;;19.74;52.80;100473.44;5000750;28;20042;-74
2022/08/04 02:02:17;;;;;;;13.52;12.70;;;;;;;19.71;52.29;100466.41;5003134;28;20373;-74
2022/08/04 02:04:42;;;;;;;12.18;11.45;;;;;;;19.69;52.28;100466.44;5000295;28;20041;-74
2022/08/04 02:07:26;;;;;;;12.57;11.77;;;;;;;19.69;52.13;100466.44;5002331;28;20033;-74
2022/08/04 02:10:07;;;;;;;12.20;11.30;;;;;;;19.68;52.78;100470.09;4996435;28;20049;-75
2022/08/04 02:13:01;;;;;;;11.45;10.75;;;;;;;19.64;53.62;100465.75;5000047;28;20069;-75
2022/08/04 02:15:40;;;;;;;12.88;11.88;;;;;;;19.59;53.26;100465.09;5006835;28;20116;-75
2022/08/04 02:18:23;;;;;;;11.98;11.18;;;;;;;19.58;53.30;100468.72;5005911;28;20034;-75
2022/08/04 02:20:56;;;;;;;11.38;10.38;;;;;;;19.55;53.20;100457.28;5002633;28;20553;-74
2022/08/04 02:23:29;;;;;;;11.23;10.43;;;;;;;19.49;53.23;100461.06;5003982;28;20085;-75
2022/08/04 02:26:03;;;;;;;11.27;10.57;;;;;;;19.43;54.39;100458.69;5001103;28;20126;-74
2022/08/04 02:28:51;;;;;;;12.48;11.52;;;;;;;19.40;53.30;100461.50;5003251;28;20382;-74
2022/08/04 02:31:27;;;;;;;11.70;10.85;;;;;;;19.42;53.33;100459.63;4999306;28;20133;-75
2022/08/04 02:34:07;;;;;;;10.85;10.15;;;;;;;19.46;53.22;100450.50;5000538;28;20038;-74
2022/08/04 02:36:39;;;;;;;11.73;10.88;;;;;;;19.41;53.28;100453.41;4986337;28;20054;-75
2022/08/04 02:39:10;;;;;;;12.73;11.82;;;;;;;19.36;53.83;100457.19;5000813;28;20061;-74
2022/08/04 02:41:36;;;;;;;12.48;11.20;;;;;;;19.31;53.48;100453.84;5004874;28;20412;-75
2022/08/04 02:44:04;;;;;;;11.55;10.75;;;;;;;19.34;53.67;100443.06;5006000;28;20095;-74
2022/08/04 02:46:32;;;;;;;11.73;10.93;;;;;;;19.29;53.73;100447.72;5003279;28;20038;-74
2022/08/04 02:49:01;;;;;;;13.18;12.30;;;;;;;19.29;53.86;100447.72;5005728;28;20030;-75
2022/08/04 02:51:36;;;;;;;12.30;11.50;;;;;;;19.25;53.84;100450.50;5003745;28;20085;-75
2022/08/04 02:54:03;;;;;;;11.60;10.70;;;;;;;19.23;54.24;100449.72;4988829;28;20412;-74
2022/08/04 02:56:31;;;;;;;11.48;10.75;;;;;;;19.24;54.08;100448.78;5003771;28;20576;-74
2022/08/04 02:59:02;;;;;;;11.70;10.80;;;;;;;19.21;54.50;100448.94;5004905;28;20160;-74
2022/08/04 03:01:28;;;;;;;11.90;11.10;;;;;;;19.11;54.62;100450.25;5005491;28;20034;-75
2022/08/04 03:04:21;;;;;;;12.20;11.18;;;;;;;19.09;55.27;100445.91;5001999;28;20108;-74
2022/08/04 03:07:24;;;;;;;11.88;10.73;;;;;;;19.03;55.40;100439.88;4999498;28;20070;-74
2022/08/04 03:10:29;;;;;;;11.25;10.30;;;;;;;19.03;55.42;100444.38;5002923;28;20046;-74
2022/08/04 03:13:31;;;;;;;10.57;9.88;;;;;;;18.99;55.94;100443.63;4999239;28;20551;-75
2022/08/04 03:16:22;;;;;;;11.15;10.32;;;;;;;19.00;55.35;100450.72;5002963;28;20038;-75
2022/08/04 03:19:14;;;;;;;11.73;10.93;;;;;;;19.04;56.07;100457.66;5003344;28;20048;-74
2022/08/04 03:22:01;;;;;;;11.13;10.32;;;;;;;19.01;55.13;100451.56;5001188;28;20042;-75
2022/08/04 03:25:07;;;;;;;11.38;10.57;;;;;;;18.95;56.14;100462.53;4976236;28;20037;-75
2022/08/04 03:28:25;;;;;;;10.95;10.25;;;;;;;18.90;56.69;100456.50;5002736;28;20488;-75
2022/08/04 03:31:47;;;;;;;11.75;10.68;;;;;;;18.90;56.03;100454.72;5003735;28;20069;-75
2022/08/04 03:34:50;;;;;;;11.65;10.43;;;;;;;18.90;56.62;100454.72;4924197;29;20032;-74
2022/08/04 03:37:21;;;;;;;;;;;;;;;18.86;57.25;100452.22;4920807;29;20499;-75
2022/08/04 03:40:11;;;;;;;11.95;11.07;;;;;;;18.86;56.70;100450.41;4977525;28;20355;-74
2022/08/04 03:43:14;;;;;;;10.40;9.70;;;;;;;18.85;57.26;100455.84;4967228;28;20121;-75
2022/08/04 03:46:09;;;;;;;11.48;10.65;;;;;;;18.92;57.14;100457.31;5003671;28;20052;-74
2022/08/04 03:49:01;;;;;;;11.10;10.30;;;;;;;18.94;56.70;100459.00;5004992;28;20033;-74
2022/08/04 03:54:43;;;;;;;11.02;10.23;;;;;;;19.03;57.51;100461.28;4998344;28;20128;-75
2022/08/04 03:57:22;;;;;;;;;;;;;;;19.04;57.52;100456.78;5003744;28;20411;-74
2022/08/04 04:00:03;;;;;;;11.25;10.45;;;;;;;19.10;57.23;100459.22;5004891;28;19913;-74
2022/08/04 04:02:51;;;;;;;10.98;10.05;;;;;;;19.16;56.99;100453.59;5000547;28;20038;-74
2022/08/04 04:05:35;;;;;;;11.23;10.18;;;;;;;19.22;57.49;100461.34;5003650;28;20117;-74
2022/08/04 04:08:15;;;;;;;11.15;10.35;;;;;;;19.23;57.03;100459.53;4999570;28;20081;-74
2022/08/04 04:11:01;;;;;;;10.70;9.73;;;;;;;19.27;57.54;100464.69;5001768;28;20085;-75
2022/08/04 04:13:33;;;;;;;10.63;9.93;;;;;;;19.27;57.56;100458.50;5001773;28;20699;-74
2022/08/04 04:16:23;;;;;;;11.50;10.60;;;;;;;19.34;57.78;100469.81;4999241;28;20030;-74
2022/08/04 04:19:13;;;;;;;12.38;11.07;;;;;;;19.40;57.44;100465.03;4999268;28;20034;-74
2022/08/04 04:22:06;;;;;;;11.15;10.35;;;;;;;19.52;57.41;100466.31;4999903;28;20042;-74
2022/08/04 04:24:49;;;;;;;13.48;12.10;;;;;;;19.60;57.48;100461.50;4989303;28;20034;-74
2022/08/04 04:27:23;;;;;;;11.07;10.32;;;;;;;19.68;57.21;100464.72;4998314;28;20045;-74
2022/08/04 04:30:00;;;;;;;12.55;11.55;;;;;;;19.83;57.02;100467.63;4997806;28;20105;-75
2022/08/04 04:32:44;;;;;;;11.07;10.07;;;;;;;19.90;56.73;100469.09;4989065;28;20073;-75
2022/08/04 04:35:36;;;;;;;12.13;10.98;;;;;;;19.96;57.20;100471.50;5010717;22;20042;-74
2022/08/04 04:38:13;;;;;;;12.90;12.00;;;;;;;20.05;56.80;100462.19;4985591;28;20117;-74
2022/08/04 04:41:11;;;;;;;13.20;11.40;;;;;;;20.13;57.41;100466.22;4981551;28;20134;-74
2022/08/04 04:44:03;;;;;;;12.65;11.40;;;;;;;20.27;57.46;100473.59;4982814;28;20543;-74
2022/08/04 04:46:41;;;;;;;11.82;10.73;;;;;;;20.37;57.43;100468.69;4941076;28;20437;-74
2022/08/04 04:49:13;;;;;;;11.90;10.90;;;;;;;20.48;56.83;100465.50;4980965;28;20122;-74
2022/08/04 04:51:48;;;;;;;11.60;10.65;;;;;;;20.60;56.79;100464.06;4978235;28;20497;-74
2022/08/04 04:54:32;;;;;;;13.00;11.98;;;;;;;20.76;57.87;100468.59;4984212;28;20034;-74
2022/08/04 04:57:17;;;;;;;12.55;11.40;;;;;;;20.98;58.26;100459.47;4981302;28;20042;-74
2022/08/04 05:00:03;;;;;;;13.02;11.90;;;;;;;21.22;57.72;100457.34;4978650;28;20050;-74
2022/08/04 05:02:50;;;;;;;12.77;11.55;;;;;;;21.40;56.81;100453.75;4977494;28;20512;-74
2022/08/04 05:05:34;;;;;;;12.52;11.40;;;;;;;21.56;56.12;100461.88;4981337;28;20405;-74
2022/08/04 05:08:36;;;;;;;12.65;10.50;;;;;;;21.78;55.75;100456.22;4981641;28;20034;-74
2022/08/04 05:11:13;;;;;;;12.55;11.65;;;;;;;21.98;54.55;100459.63;4977628;28;20039;-74
2022/08/04 05:13:51;;;;;;;15.35;14.02;;;;;;;22.14;54.58;100454.28;4981268;28;20034;-73
2022/08/04 05:16:34;;;;;;;15.07;13.93;;;;;;;22.30;53.72;100458.75;4980145;28;20035;-74
2022/08/04 05:19:17;;;;;;;16.33;15.00;;;;;;;22.45;53.30;100462.41;4978438;28;20063;-74
2022/08/04 05:21:58;;;;;;;17.65;16.08;;;;;;;22.59;53.28;100463.47;4980716;28;20047;-75
2022/08/04 05:24:26;;;;;;;17.55;15.95;;;;;;;22.71;52.67;100460.91;4981909;28;20832;-74
2022/08/04 05:26:55;;;;;;;18.13;14.60;;;;;;;22.82;52.76;100464.78;4984147;28;20042;-74
2022/08/04 05:29:30;;;;;;;14.00;12.95;;;;;;;22.95;51.88;100465.81;4978353;28;20046;-74
2022/08/04 05:31:58;;;;;;;15.20;14.05;;;;;;;23.05;51.50;100461.66;4981287;28;20536;-74
2022/08/04 05:34:27;;;;;;;15.35;14.18;;;;;;;23.18;51.34;100461.78;4983457;28;20141;-74
2022/08/04 05:37:05;;;;;;;15.63;14.50;;;;;;;23.30;50.55;100463.75;4978918;28;20527;-75
2022/08/04 05:39:37;;;;;;;17.08;15.73;;;;;;;23.43;50.65;100450.44;4974934;28;20105;-75
2022/08/04 05:42:04;;;;;;;17.08;15.88;;;;;;;23.57;50.48;100457.66;4984445;28;20093;-75
2022/08/04 05:44:32;;;;;;;18.20;16.83;;;;;;;23.70;50.69;100457.75;4980525;28;20665;-74
2022/08/04 05:46:59;;;;;;;18.75;17.08;;;;;;;23.81;50.75;100445.38;4977680;28;20044;-75
2022/08/04 05:49:27;;;;;;;17.15;15.60;;;;;;;23.93;50.08;100454.53;4981243;28;20045;-75
2022/08/04 05:51:57;;;;;;;18.17;16.88;;;;;;;24.01;50.05;100452.22;4975024;28;20050;-74
2022/08/04 05:54:23;;;;;;;18.10;16.80;;;;;;;24.14;49.45;100455.00;4980368;28;20049;-74
2022/08/04 05:56:49;;;;;;;17.40;16.30;;;;;;;24.24;49.37;100449.88;4981135;28;20034;-75
2022/08/04 05:59:18;;;;;;;16.85;15.75;;;;;;;24.36;49.12;100457.16;4983303;28;20034;-75
2022/08/04 06:01:44;;;;;;;18.92;17.73;;;;;;;24.51;48.72;100451.78;4980141;28;20043;-75
2022/08/04 06:04:11;;;;;;;18.35;16.98;;;;;;;24.63;47.95;100454.53;4980873;28;20035;-74
2022/08/04 06:06:38;;;;;;;17.45;16.25;;;;;;;24.75;47.62;100452.84;4982053;28;20026;-74
2022/08/04 06:09:03;;;;;;;18.45;16.95;;;;;;;24.89;47.32;100450.13;4982521;28;20071;-75
2022/08/04 06:11:29;;;;;;;20.75;19.02;;;;;;;25.03;47.17;100451.88;4980413;28;20504;-75
2022/08/04 06:14:03;;;;;;;19.00;17.40;;;;;;;25.22;46.90;100456.03;4983476;28;20093;-74
2022/08/04 06:16:36;;;;;;;20.73;19.27;;;;;;;25.36;46.60;100454.13;4981629;28;20054;-75
2022/08/04 06:19:06;;;;;;;20.52;18.92;;;;;;;25.52;46.13;100453.94;4980723;28;20039;-74
2022/08/04 06:21:33;;;;;;;19.70;18.15;;;;;;;25.66;45.88;100461.06;4976869;28;20133;-75
2022/08/04 06:24:01;;;;;;;15.88;14.57;;;;;;;25.78;45.94;100456.63;4975992;28;20531;-75
2022/08/04 06:26:28;;;;;;;19.63;18.13;;;;;;;25.92;45.45;100453.00;4980595;28;20038;-75
2022/08/04 06:28:56;;;;;;;19.65;17.98;;;;;;;26.05;45.29;100461.09;4980715;28;20030;-75
2022/08/04 06:34:10;;;;;;;18.30;16.45;;;;;;;26.27;45.08;100463.94;4979262;28;20444;-74
2022/08/04 06:36:39;;;;;;;17.00;16.00;;;;;;;26.42;44.59;100459.25;4977177;28;20042;-75
2022/08/04 06:39:07;;;;;;;17.17;15.52;;;;;;;26.57;44.41;100462.72;4981919;28;20121;-74
2022/08/04 06:41:33;;;;;;;18.85;17.25;;;;;;;26.70;44.13;100463.53;4982247;28;20138;-75
2022/08/04 06:44:06;;;;;;;16.90;15.70;;;;;;;26.87;43.86;100459.53;4980019;28;20119;-75
2022/08/04 06:46:33;;;;;;;19.17;17.77;;;;;;;27.03;43.34;100456.53;4982465;28;20038;-74
2022/08/04 06:48:59;;;;;;;18.70;17.50;;;;;;;27.17;43.12;100461.81;4981965;28;20401;-75
2022/08/04 06:51:27;;;;;;;19.92;18.13;;;;;;;27.30;42.93;100456.28;4980640;28;20046;-75
2022/08/04 06:53:52;;;;;;;19.40;18.20;;;;;;;27.45;42.70;100446.97;4983100;28;20046;-75
2022/08/04 06:56:18;;;;;;;19.30;18.00;;;;;;;27.54;42.51;100454.38;4976273;28;20043;-75
2022/08/04 06:58:45;;;;;;;17.63;16.42;;;;;;;27.65;42.34;100449.97;4982350;28;20049;-75
2022/08/04 07:01:12;;;;;;;18.20;16.90;;;;;;;27.78;41.40;100453.44;4983096;28;20482;-74
2022/08/04 07:03:38;;;;;;;16.65;15.43;;;;;;;27.86;41.30;100448.28;4982820;28;20807;-75
2022/08/04 07:06:04;;;;;;;16.48;15.38;;;;;;;27.99;40.48;100442.75;4983759;28;20031;-75
2022/08/04 07:08:29;;;;;;;17.85;16.75;;;;;;;28.12;41.06;100448.06;4986686;28;20035;-75
2022/08/04 07:10:57;;;;;;;16.83;15.73;;;;;;;28.22;40.25;100450.84;4966341;28;20051;-75
2022/08/04 07:13:24;;;;;;;17.83;16.60;;;;;;;28.29;39.09;100433.94;4984035;28;20488;-75
2022/08/04 07:15:51;;;;;;;19.50;17.35;;;;;;;28.44;39.09;100441.88;4985189;28;20049;-75
2022/08/04 07:18:16;;;;;;;18.90;17.25;;;;;;;28.57;38.84;100442.56;4983757;28;20045;-75
2022/08/04 07:20:43;;;;;;;20.00;18.33;;;;;;;28.72;38.65;100440.44;4986421;28;20030;-75
2022/08/04 07:23:10;;;;;;;17.27;16.15;;;;;;;28.84;37.83;100445.69;4983889;28;20072;-75
2022/08/04 07:25:36;;;;;;;17.40;16.02;;;;;;;28.97;37.38;100439.22;4984273;28;20497;-75
2022/08/04 07:28:01;;;;;;;16.42;15.32;;;;;;;29.15;37.51;100434.97;4984662;28;20038;-75
2022/08/04 07:30:30;;;;;;;15.65;14.63;;;;;;;29.36;36.34;100431.41;4985260;28;20034;-75
2022/08/04 07:32:56;;;;;;;15.82;14.80;;;;;;;29.43;36.16;100435.31;4982506;28;20060;-75
2022/08/04 07:35:22;;;;;;;18.92;17.27;;;;;;;29.54;36.38;100426.22;4985903;28;20041;-75
2022/08/04 07:37:48;;;;;;;16.73;15.38;;;;;;;29.61;36.53;100428.25;4983829;28;20477;-75
2022/08/04 07:40:13;;;;;;;17.20;15.90;;;;;;;29.58;35.81;100427.66;4984718;28;20071;-75
2022/08/04 07:42:38;;;;;;;16.30;15.20;;;;;;;29.57;34.41;100432.22;4984590;28;20038;-74
2022/08/04 07:45:05;;;;;;;16.02;15.02;;;;;;;29.63;35.03;100430.84;4983320;28;20043;-75
2022/08/04 07:47:30;;;;;;;17.27;15.90;;;;;;;29.64;35.21;100422.59;4980676;28;20046;-75
2022/08/04 07:49:55;;;;;;;18.33;16.38;;;;;;;29.73;34.59;100428.19;4985830;28;20038;-75
2022/08/04 07:52:22;;;;;;;17.58;16.27;;;;;;;29.73;34.65;100430.91;4982476;28;20088;-75
2022/08/04 07:54:49;;;;;;;15.30;14.20;;;;;;;29.89;34.59;100431.28;4983290;28;20093;-75
2022/08/04 07:57:17;;;;;;;13.57;12.75;;;;;;;30.05;34.76;100430.75;4983336;28;20501;-75
2022/08/04 07:59:42;;;;;;;17.15;16.05;;;;;;;30.18;34.46;100431.38;4983772;28;20038;-76
2022/08/04 08:02:09;;;;;;;16.10;14.93;;;;;;;30.32;33.76;100425.59;4982206;28;20046;-75
2022/08/04 08:04:34;;;;;;;14.00;13.10;;;;;;;30.43;32.90;100430.06;4984909;28;20484;-75
2022/08/04 08:06:59;;;;;;;16.17;14.80;;;;;;;30.54;33.31;100416.31;4983594;28;20046;-75
2022/08/04 08:09:25;;;;;;;17.63;16.52;;;;;;;30.59;33.24;100418.63;4983835;28;20034;-75
2022/08/04 08:11:52;;;;;;;16.95;15.98;;;;;;;30.73;33.04;100418.22;4984058;28;20527;-75
2022/08/04 08:14:18;;;;;;;14.20;13.40;;;;;;;30.86;33.14;100419.81;4982144;28;20046;-75
2022/08/04 08:16:45;;;;;;;15.57;14.57;;;;;;;30.97;32.74;100417.81;4978493;28;20035;-75
2022/08/04 08:19:11;;;;;;;14.10;13.20;;;;;;;31.10;32.69;100416.66;4980860;28;20401;-76
2022/08/04 08:21:37;;;;;;;17.23;15.95;;;;;;;31.31;32.58;100420.09;4985850;28;20106;-75
2022/08/04 08:24:04;;;;;;;13.70;12.75;;;;;;;31.37;31.36;100413.19;4967198;28;20096;-76
2022/08/04 08:26:29;;;;;;;16.25;15.07;;;;;;;31.37;30.72;100402.28;4981454;28;20043;-75
2022/08/04 08:28:55;;;;;;;16.88;15.68;;;;;;;31.52;31.14;100402.69;4986393;28;20027;-75
2022/08/04 08:31:21;;;;;;;14.75;13.75;;;;;;;31.58;31.55;100411.13;4977583;28;20513;-75
2022/08/04 08:33:49;;;;;;;14.73;13.77;;;;;;;31.58;30.95;100397.50;4980382;28;20628;-76
2022/08/04 08:36:37;;;;;;;14.77;13.77;;;;;;;31.71;30.30;100405.34;4979597;28;20038;-75
2022/08/04 08:39:10;;;;;;;14.93;13.93;;;;;;;31.80;29.67;100409.03;4979970;28;20050;-75
2022/08/04 08:41:47;;;;;;;14.27;13.13;;;;;;;31.88;29.44;100407.28;4984591;28;20570;-75
2022/08/04 08:44:46;;;;;;;14.18;13.25;;;;;;;32.02;29.08;100405.13;4980383;28;20543;-75
2022/08/04 08:47:42;;;;;;;14.98;13.98;;;;;;;32.15;29.57;100400.16;4984045;28;20118;-75
2022/08/04 08:50:43;;;;;;;20.83;13.05;;;;;;;32.22;29.16;100406.72;4977900;28;20097;-75
2022/08/04 08:53:31;;;;;;;18.80;13.63;;;;;;;32.37;29.71;100400.75;4979375;28;20046;-75
2022/08/04 08:56:15;;;;;;;14.95;13.98;;;;;;;32.50;28.74;100406.72;4979923;28;20484;-75
2022/08/04 08:59:02;;;;;;;13.68;12.52;;;;;;;32.64;28.65;100408.91;4974321;28;20449;-75
2022/08/04 09:01:36;;;;;;;14.90;13.90;;;;;;;32.77;28.54;100400.31;4977380;28;20093;-76
2022/08/04 09:04:16;;;;;;;13.45;12.32;;;;;;;32.88;28.15;100399.22;4976997;28;20081;-76
2022/08/04 09:07:13;;;;;;;14.80;13.90;;;;;;;33.06;27.94;100404.72;4979990;28;20435;-76
2022/08/04 09:10:07;;;;;;;13.68;12.65;;;;;;;33.14;27.37;100402.03;4982991;28;20054;-75
2022/08/04 09:12:57;;;;;;;14.38;13.40;;;;;;;33.21;27.42;100399.53;4980806;28;20038;-75
2022/08/04 09:15:36;;;;;;;13.02;12.02;;;;;;;33.36;27.62;100404.28;4982612;28;20707;-75
2022/08/04 09:18:08;;;;;;;13.52;12.52;;;;;;;33.36;27.00;100400.69;4979613;28;20089;-75
2022/08/04 09:20:39;;;;;;;15.07;13.73;;;;;;;33.39;25.78;100397.63;4981661;28;20066;-75
2022/08/04 09:23:07;;;;;;;14.75;13.75;;;;;;;33.46;25.53;100397.81;4978777;28;20386;-75
2022/08/04 09:25:50;;;;;;;15.27;14.27;;;;;;;33.52;26.09;100400.78;4981965;28;20042;-75
2022/08/04 09:28:22;;;;;;;13.70;12.90;;;;;;;33.52;26.09;100389.84;4976845;28;20133;-75
2022/08/04 09:30:55;;;;;;;15.23;14.23;;;;;;;33.66;26.17;100398.50;4982573;28;20450;-76
2022/08/04 09:33:43;;;;;;;15.23;14.27;;;;;;;33.76;25.92;100396.50;4984218;28;20027;-75
2022/08/04 09:36:27;;;;;;;16.27;14.68;;;;;;;33.87;26.17;100401.69;4984552;28;20026;-75
2022/08/04 09:39:34;;;;;;;14.43;13.32;;;;;;;34.07;24.77;100396.00;4981699;28;20065;-76
2022/08/04 09:42:17;;;;;;;16.13;14.93;;;;;;;34.21;25.07;100396.19;4968774;28;20547;-76
2022/08/04 09:44:56;;;;;;;15.05;13.98;;;;;;;34.30;24.64;100388.88;4977374;28;20035;-73
2022/08/04 09:47:29;;;;;;;14.95;14.05;;;;;;;34.43;24.93;100397.47;4982828;28;20038;-76
2022/08/04 09:50:03;;;;;;;15.27;14.38;;;;;;;34.53;24.58;100394.56;4975994;28;20493;-75
2022/08/04 09:52:43;;;;;;;15.52;14.65;;;;;;;34.53;23.80;100388.22;4979933;28;20061;-76
2022/08/04 09:55:45;;;;;;;16.85;15.75;;;;;;;34.53;24.46;100388.22;4969237;28;20097;-76
2022/08/04 09:58:37;;;;;;;16.13;14.95;;;;;;;34.80;23.61;100393.44;4977096;28;20492;-75
2022/08/04 10:01:13;;;;;;;15.85;14.77;;;;;;;35.12;23.94;100380.78;4976870;28;20050;-75
2022/08/04 10:03:42;;;;;;;18.00;16.77;;;;;;;35.12;23.98;100384.38;4980684;28;20031;-76
2022/08/04 10:06:21;;;;;;;16.88;15.52;;;;;;;34.92;22.79;100377.50;4981132;28;20034;-73
2022/08/04 10:09:12;;;;;;;16.83;15.82;;;;;;;35.05;22.74;100382.47;4979984;28;20035;-75
2022/08/04 10:11:56;;;;;;;16.58;15.07;;;;;;;35.17;23.17;100381.13;4983312;28;20026;-75
2022/08/04 10:14:38;;;;;;;16.63;15.57;;;;;;;35.40;22.81;100374.91;4979529;28;20390;-75
2022/08/04 10:17:19;;;;;;;15.73;14.82;;;;;;;35.42;23.05;100375.59;4985560;28;20038;-75
2022/08/04 10:19:46;;;;;;;15.45;14.52;;;;;;;35.48;22.64;100363.94;4981835;28;20046;-75
2022/08/04 10:22:20;;;;;;;15.27;14.35;;;;;;;35.62;22.48;100365.97;4978484;28;20369;-74
2022/08/04 10:25:13;;;;;;;15.65;14.65;;;;;;;35.67;22.19;100366.31;4980340;28;20122;-73
2022/08/04 10:27:49;;;;;;;15.90;14.90;;;;;;;35.80;22.64;100364.91;4978745;28;20059;-73
2022/08/04 10:30:17;;;;;;;16.25;15.35;;;;;;;35.82;22.87;100358.19;4983320;28;20046;-73
2022/08/04 10:32:52;;;;;;;17.52;16.52;;;;;;;35.82;22.54;100352.69;4980040;28;20046;-73
2022/08/04 10:35:21;;;;;;;16.35;15.45;;;;;;;36.03;22.10;100360.31;4980212;28;20501;-73
2022/08/04 10:38:12;;;;;;;16.65;14.77;;;;;;;35.94;22.01;100347.66;4977813;28;20050;-73
2022/08/04 10:40:57;;;;;;;17.00;16.02;;;;;;;36.09;22.30;100350.53;4980899;28;20129;-73
2022/08/04 10:43:38;;;;;;;15.30;14.32;;;;;;;36.23;22.52;100343.41;4977367;28;20034;-73
2022/08/04 10:46:20;;;;;;;17.30;16.30;;;;;;;36.35;22.05;100350.22;4984746;28;20034;-73
2022/08/04 10:48:55;;;;;;;16.63;15.55;;;;;;;36.11;21.63;100343.84;4988557;28;20046;-74
2022/08/04 10:51:33;;;;;;;15.90;15.00;;;;;;;36.31;21.72;100335.13;4988445;28;20030;-73
2022/08/04 10:54:04;;;;;;;15.13;14.20;;;;;;;36.33;21.29;100336.66;4981512;28;20087;-73
2022/08/04 10:56:36;;;;;;;16.10;15.02;;;;;;;36.45;21.96;100331.59;4962064;28;20523;-73
2022/08/04 10:59:09;;;;;;;18.67;17.50;;;;;;;36.59;21.69;100330.81;4984062;28;20133;-73
2022/08/04 11:01:40;;;;;;;17.00;16.00;;;;;;;36.68;21.97;100328.88;4985536;28;20481;-74
2022/08/04 11:04:24;;;;;;;16.23;15.38;;;;;;;36.68;21.05;100328.00;5006312;22;20046;-76
2022/08/04 11:06:51;;;;;;;21.33;20.00;;;;;;;36.72;21.32;100329.34;4994094;28;20058;-76
2022/08/04 11:09:19;;;;;;;17.27;16.23;;;;;;;36.80;21.68;100321.03;4994595;28;20034;-76
2022/08/04 11:11:52;;;;;;;17.02;16.02;;;;;;;37.14;21.86;100319.72;4993614;28;20547;-77
2022/08/04 11:14:32;;;;;;;16.38;15.43;;;;;;;37.37;20.74;100322.41;4996713;28;20504;-76
2022/08/04 11:17:05;;;;;;;15.73;14.23;;;;;;;37.33;20.53;100324.66;4992429;28;20034;-76
2022/08/04 11:19:47;;;;;;;16.30;15.30;;;;;;;37.37;20.59;100317.75;5001246;28;20038;-76
2022/08/04 11:22:22;;;;;;;18.38;17.38;;;;;;;37.38;20.10;100319.44;4993782;28;20590;-77
2022/08/04 11:25:13;;;;;;;17.45;16.55;;;;;;;37.52;21.08;100325.16;4965837;28;20030;-76
2022/08/04 11:28:01;;;;;;;17.23;15.63;;;;;;;37.70;19.81;100321.00;4993701;28;20038;-76
2022/08/04 11:30:36;;;;;;;18.63;17.25;;;;;;;38.01;19.99;100321.81;4995780;28;20504;-76
2022/08/04 11:33:34;;;;;;;18.65;17.38;;;;;;;38.14;19.85;100320.06;4992678;28;20042;-76
2022/08/04 11:36:51;;;;;;;17.70;16.67;;;;;;;38.02;19.75;100310.59;4970065;28;20050;-76
2022/08/04 11:39:26;;;;;;;18.15;17.00;;;;;;;38.17;19.52;100307.78;4980488;28;20046;-76
2022/08/04 11:42:00;;;;;;;16.52;15.52;;;;;;;38.31;19.22;100308.81;4990367;28;20146;-77
2022/08/04 11:44:47;;;;;;;18.63;17.63;;;;;;;38.62;19.46;100314.03;4993876;28;20045;-76
2022/08/04 11:47:33;;;;;;;19.45;18.20;;;;;;;38.75;18.81;100308.63;4991224;28;20045;-77
2022/08/04 11:50:31;;;;;;;22.13;20.65;;;;;;;39.20;17.97;100311.97;4991286;28;20169;-76
2022/08/04 11:52:58;;;;;;;18.42;17.42;;;;;;;39.38;18.37;100305.97;4992465;28;20043;-77
2022/08/04 11:55:25;;;;;;;20.13;19.02;;;;;;;39.52;18.49;100309.63;4993567;28;20046;-77
2022/08/04 11:57:51;;;;;;;18.33;17.27;;;;;;;39.79;18.32;100301.50;4991567;28;20042;-77
2022/08/04 12:00:18;;;;;;;18.70;17.70;;;;;;;39.75;18.14;100295.53;4993802;28;20049;-77